Time;durP1;ratioP1;P1;durP2;ratioP2;P2;SDS_P1;SDS_P2;PMS_P1;PMS_P2;Temp;Humidity;BMP_temperature;BMP_pressure;BME280_temperature;BME280_humidity;BME280_pressure;Samples;Min_cycle;Max_cycle;Signal;HPM_P1;HPM_P2
2021/08/30 00:01:09;;;;;;;17.73;10.43;;;16.70;83.70;;;;;;4956197;28;20073;-88
2021/08/30 00:03:37;;;;;;;19.75;9.68;;;16.70;83.70;;;;;;4955220;28;20059;-87
2021/08/30 00:06:05;;;;;;;21.65;11.77;;;16.70;83.80;;;;;;4956356;28;20047;-89
2021/08/30 00:08:31;;;;;;;22.02;11.77;;;16.80;83.80;;;;;;4956538;28;20510;-87
2021/08/30 00:10:58;;;;;;;22.20;11.93;;;16.70;83.80;;;;;;4956572;28;20505;-89
2021/08/30 00:13:25;;;;;;;25.67;11.82;;;16.70;83.80;;;;;;4955861;28;20646;-87
2021/08/30 00:15:52;;;;;;;17.58;11.43;;;16.70;83.90;;;;;;4956037;28;20047;-89
2021/08/30 00:18:19;;;;;;;19.17;11.98;;;16.70;83.90;;;;;;4956222;28;20050;-89
2021/08/30 00:20:46;;;;;;;24.48;11.45;;;16.70;83.90;;;;;;4940690;29;20589;-89
2021/08/30 00:23:13;;;;;;;20.25;12.93;;;16.70;83.90;;;;;;4956558;28;20051;-89
2021/08/30 00:25:39;;;;;;;23.35;12.43;;;16.70;83.90;;;;;;4955946;28;20054;-88
2021/08/30 00:28:06;;;;;;;20.75;10.80;;;16.80;83.90;;;;;;4955643;28;20051;-90
2021/08/30 00:30:34;;;;;;;20.67;13.13;;;16.80;83.90;;;;;;4955640;28;20047;-91
2021/08/30 00:33:00;;;;;;;22.70;12.77;;;16.70;84.00;;;;;;4955841;29;20050;-88
2021/08/30 00:35:27;;;;;;;19.27;11.45;;;16.80;84.00;;;;;;4956048;28;20179;-88
2021/08/30 00:37:54;;;;;;;24.10;12.55;;;16.80;84.00;;;;;;4944790;28;20052;-88
2021/08/30 00:40:22;;;;;;;24.10;13.45;;;16.70;84.00;;;;;;4951812;28;20043;-87
2021/08/30 00:42:49;;;;;;;20.85;12.57;;;16.80;84.00;;;;;;4955367;28;20059;-87
2021/08/30 00:45:16;;;;;;;17.48;10.20;;;16.80;84.00;;;;;;4955649;28;20047;-89
2021/08/30 00:47:45;;;;;;;18.30;11.90;;;16.70;84.00;;;;;;4955802;28;20055;-88
2021/08/30 00:50:15;;;;;;;18.73;13.40;;;16.70;84.00;;;;;;4956062;28;20051;-89
2021/08/30 00:52:45;;;;;;;16.98;11.32;;;16.80;84.00;;;;;;4955473;28;20055;-88
2021/08/30 00:55:13;;;;;;;21.35;13.63;;;16.70;84.00;;;;;;4955530;28;20086;-87
2021/08/30 00:57:40;;;;;;;20.98;11.60;;;16.80;84.00;;;;;;4953689;28;20054;-90
2021/08/30 01:00:08;;;;;;;22.55;13.20;;;16.70;84.00;;;;;;4941770;28;20593;-88
2021/08/30 01:02:36;;;;;;;24.80;12.65;;;16.80;84.00;;;;;;4955517;28;20047;-89
2021/08/30 01:05:04;;;;;;;22.25;13.60;;;16.80;84.00;;;;;;4955950;28;20056;-89
2021/08/30 01:07:48;;;;;;;21.52;12.82;;;16.80;84.00;;;;;;4955179;28;20048;-89
2021/08/30 01:10:28;;;;;;;19.00;14.13;;;16.80;84.10;;;;;;4952983;28;20048;-89
2021/08/30 01:13:02;;;;;;;23.45;14.25;;;16.80;84.10;;;;;;4954850;28;20469;-89
2021/08/30 01:15:29;;;;;;;;;;;16.80;84.10;;;;;;4955540;28;20055;-88
2021/08/30 01:17:59;;;;;;;23.67;13.25;;;16.80;84.10;;;;;;4938861;29;19930;-90
2021/08/30 01:21:05;;;;;;;21.67;14.68;;;16.80;84.10;;;;;;4951765;28;20481;-88
2021/08/30 01:23:34;;;;;;;22.13;15.35;;;16.80;84.10;;;;;;4893134;29;20056;-88
2021/08/30 01:26:03;;;;;;;23.35;15.75;;;16.80;84.10;;;;;;4896045;29;20503;-89
2021/08/30 01:28:36;;;;;;;25.38;16.20;;;16.80;84.10;;;;;;4887935;29;20049;-86
2021/08/30 01:31:14;;;;;;;23.83;15.90;;;16.80;84.10;;;;;;4885127;29;20527;-88
2021/08/30 01:33:42;;;;;;;20.88;15.80;;;16.80;84.10;;;;;;4885127;29;20139;-89
2021/08/30 01:36:09;;;;;;;21.30;15.57;;;16.80;84.10;;;;;;4880463;29;20061;-88
2021/08/30 01:38:45;;;;;;;19.50;14.85;;;16.80;84.10;;;;;;4895749;29;20048;-90
2021/08/30 01:41:15;;;;;;;20.15;15.38;;;16.80;84.10;;;;;;4894509;29;20057;-89
2021/08/30 01:43:46;;;;;;;22.58;15.95;;;16.80;84.10;;;;;;4886415;29;20789;-89
2021/08/30 01:46:15;;;;;;;20.92;16.27;;;16.80;84.00;;;;;;4884736;29;20049;-87
2021/08/30 01:48:48;;;;;;;24.65;16.95;;;16.80;84.00;;;;;;4884802;29;20052;-88
2021/08/30 01:51:22;;;;;;;27.58;17.42;;;16.80;84.00;;;;;;4882919;29;20085;-88
2021/08/30 01:53:50;;;;;;;23.17;16.15;;;16.80;84.10;;;;;;4880303;29;20056;-87
2021/08/30 01:56:19;;;;;;;24.20;14.80;;;16.80;84.10;;;;;;4881782;29;20057;-88
2021/08/30 02:01:34;;;;;;;21.50;16.08;;;16.80;84.10;;;;;;4951870;29;20047;-88
2021/08/30 02:04:02;;;;;;;24.83;16.38;;;16.80;84.10;;;;;;4954127;28;20100;-89
2021/08/30 02:06:30;;;;;;;24.38;15.52;;;16.80;84.10;;;;;;4954220;28;20111;-88
2021/08/30 02:08:58;;;;;;;22.67;16.33;;;16.80;84.10;;;;;;4939231;29;20043;-88
2021/08/30 02:11:35;;;;;;;21.15;15.73;;;16.70;84.20;;;;;;4950574;28;20092;-88
2021/08/30 02:14:03;;;;;;;20.30;14.88;;;16.80;84.20;;;;;;4941727;29;20059;-88
2021/08/30 02:16:30;;;;;;;23.33;17.00;;;16.80;84.20;;;;;;4942012;28;20056;-87
2021/08/30 02:19:05;;;;;;;25.50;15.95;;;16.70;84.20;;;;;;4945553;29;20387;-88
2021/08/30 02:21:46;;;;;;;24.05;14.70;;;16.70;84.20;;;;;;4953514;28;20110;-87
2021/08/30 02:24:25;;;;;;;22.63;17.38;;;16.70;84.20;;;;;;4953656;28;20106;-87
2021/08/30 02:27:13;;;;;;;22.48;15.73;;;16.70;84.20;;;;;;4953801;28;20117;-87
2021/08/30 02:29:58;;;;;;;22.77;17.13;;;16.70;84.20;;;;;;4950880;28;20059;-88
2021/08/30 02:32:25;;;;;;;26.83;17.50;;;16.70;84.20;;;;;;4950606;28;20043;-87
2021/08/30 02:34:56;;;;;;;20.67;15.57;;;16.70;84.30;;;;;;4942922;28;20115;-88
2021/08/30 02:37:25;;;;;;;23.23;16.58;;;16.70;84.30;;;;;;4949814;28;20106;-87
2021/08/30 02:39:54;;;;;;;25.23;16.00;;;16.70;84.30;;;;;;4953249;28;20048;-87
2021/08/30 02:42:21;;;;;;;23.50;14.82;;;16.70;84.30;;;;;;4954028;28;20144;-87
2021/08/30 02:44:48;;;;;;;16.83;14.27;;;16.70;84.30;;;;;;4952694;28;20521;-87
2021/08/30 02:47:18;;;;;;;18.40;14.45;;;16.60;84.30;;;;;;4954203;28;20047;-87
2021/08/30 02:49:46;;;;;;;22.70;14.82;;;16.70;84.30;;;;;;4953737;28;20059;-88
2021/08/30 02:52:15;;;;;;;22.30;14.05;;;16.70;84.30;;;;;;4953589;28;20560;-88
2021/08/30 02:54:45;;;;;;;20.27;13.90;;;16.70;84.40;;;;;;4951665;28;20055;-86
2021/08/30 02:57:13;;;;;;;18.20;14.18;;;16.60;84.40;;;;;;4939143;29;20098;-87
2021/08/30 02:59:42;;;;;;;16.02;12.50;;;16.60;84.40;;;;;;4953771;28;20059;-88
2021/08/30 03:02:10;;;;;;;19.90;14.00;;;16.60;84.40;;;;;;4952145;28;20047;-86
2021/08/30 03:04:37;;;;;;;17.10;13.50;;;16.60;84.40;;;;;;4953495;28;20430;-87
2021/08/30 03:07:05;;;;;;;19.95;13.90;;;16.60;84.40;;;;;;4953453;28;20043;-87
2021/08/30 03:09:33;;;;;;;18.38;13.55;;;16.60;84.50;;;;;;4951941;28;20059;-88
2021/08/30 03:12:03;;;;;;;22.52;13.40;;;16.60;84.50;;;;;;4952355;28;20043;-88
2021/08/30 03:14:31;;;;;;;20.77;12.95;;;16.60;84.50;;;;;;4953776;28;20106;-87
2021/08/30 03:17:02;;;;;;;22.85;13.75;;;16.60;84.50;;;;;;4953636;29;20058;-88
2021/08/30 03:19:31;;;;;;;22.05;13.38;;;16.60;84.50;;;;;;4953245;28;20047;-88
2021/08/30 03:22:00;;;;;;;23.40;12.65;;;16.60;84.50;;;;;;4952962;28;20051;-87
2021/08/30 03:24:27;;;;;;;23.33;13.68;;;16.60;84.50;;;;;;4953331;28;20522;-87
2021/08/30 03:26:56;;;;;;;20.42;13.75;;;16.60;84.50;;;;;;4953479;28;20066;-88
2021/08/30 03:29:23;;;;;;;23.55;13.70;;;16.60;84.50;;;;;;4953957;28;20095;-91
2021/08/30 03:31:51;;;;;;;26.63;14.57;;;16.60;84.50;;;;;;4953321;28;20043;-85
2021/08/30 03:34:20;;;;;;;23.95;14.35;;;16.70;84.50;;;;;;4948750;28;20458;-86
2021/08/30 03:36:48;;;;;;;23.60;14.95;;;16.60;84.50;;;;;;4947787;28;20055;-89
2021/08/30 03:39:17;;;;;;;21.85;13.77;;;16.60;84.50;;;;;;4956927;28;20043;-88
2021/08/30 03:41:45;;;;;;;29.70;16.00;;;16.60;84.40;;;;;;4956984;28;20111;-88
2021/08/30 03:44:12;;;;;;;20.35;14.07;;;16.60;84.50;;;;;;4957511;28;20094;-88
2021/08/30 03:46:39;;;;;;;21.00;13.82;;;16.60;84.50;;;;;;4955522;28;20514;-88
2021/08/30 03:49:07;;;;;;;22.63;14.65;;;16.60;84.50;;;;;;4955600;28;20051;-88
2021/08/30 03:51:36;;;;;;;20.25;14.15;;;16.60;84.50;;;;;;4956377;28;20063;-87
2021/08/30 03:54:04;;;;;;;18.60;13.82;;;16.60;84.50;;;;;;4956630;28;20075;-89
2021/08/30 03:56:31;;;;;;;22.13;13.93;;;16.60;84.50;;;;;;4956906;28;20453;-86
2021/08/30 03:59:00;;;;;;;22.27;13.55;;;16.60;84.40;;;;;;4956716;28;20047;-89
2021/08/30 04:01:29;;;;;;;23.25;14.60;;;16.60;84.40;;;;;;4955300;28;20047;-88
2021/08/30 04:04:00;;;;;;;22.02;13.68;;;16.60;84.40;;;;;;4955348;28;20043;-89
2021/08/30 04:06:30;;;;;;;21.15;14.43;;;16.60;84.40;;;;;;4956169;28;20047;-88
2021/08/30 04:08:58;;;;;;;28.90;14.40;;;16.60;84.40;;;;;;4941327;29;20051;-88
2021/08/30 04:11:26;;;;;;;28.02;14.73;;;16.60;84.40;;;;;;4952853;29;20458;-87
2021/08/30 04:13:53;;;;;;;23.63;13.30;;;16.60;84.40;;;;;;4956270;28;20051;-88
2021/08/30 04:16:20;;;;;;;22.05;13.90;;;16.60;84.40;;;;;;4956056;28;20565;-89
2021/08/30 04:18:47;;;;;;;21.45;14.02;;;16.60;84.40;;;;;;4956250;28;20059;-87
2021/08/30 04:21:14;;;;;;;23.52;13.63;;;16.60;84.40;;;;;;4955690;29;20051;-88
2021/08/30 04:23:41;;;;;;;22.42;14.07;;;16.60;84.40;;;;;;4956426;28;20051;-89
2021/08/30 04:26:08;;;;;;;26.17;15.10;;;16.60;84.30;;;;;;4954556;29;20114;-91
2021/08/30 04:28:35;;;;;;;21.80;14.40;;;16.60;84.30;;;;;;4956042;28;20055;-88
2021/08/30 04:31:02;;;;;;;19.45;13.65;;;16.60;84.30;;;;;;4955765;28;20457;-88
2021/08/30 04:33:29;;;;;;;26.50;15.77;;;16.60;84.30;;;;;;4955942;29;20126;-87
2021/08/30 04:35:55;;;;;;;23.08;15.15;;;16.60;84.40;;;;;;4940035;29;20051;-87
2021/08/30 04:38:22;;;;;;;23.15;15.68;;;16.60;84.30;;;;;;4956550;28;20051;-87
2021/08/30 04:40:49;;;;;;;24.00;15.15;;;16.60;84.30;;;;;;4955734;29;20580;-89
2021/08/30 04:43:16;;;;;;;20.10;15.20;;;16.60;84.30;;;;;;4955859;28;20044;-87
2021/08/30 04:45:43;;;;;;;30.27;15.85;;;16.60;84.30;;;;;;4955380;28;20047;-89
2021/08/30 04:48:10;;;;;;;26.70;16.23;;;16.60;84.30;;;;;;4955843;28;20123;-88
2021/08/30 04:50:37;;;;;;;21.38;13.63;;;16.60;84.30;;;;;;4955377;28;20094;-89
2021/08/30 04:53:04;;;;;;;29.95;15.63;;;16.60;84.30;;;;;;4943889;28;20048;-89
2021/08/30 04:55:31;;;;;;;28.30;14.43;;;16.50;84.30;;;;;;4952799;29;20161;-90
2021/08/30 04:57:59;;;;;;;19.58;13.73;;;16.60;84.30;;;;;;4955360;28;20507;-89
2021/08/30 05:00:26;;;;;;;22.52;14.10;;;16.50;84.30;;;;;;4955486;28;20047;-90
2021/08/30 05:02:53;;;;;;;19.30;12.52;;;16.50;84.40;;;;;;4955507;28;20074;-89
2021/08/30 05:05:20;;;;;;;23.45;13.38;;;16.60;84.40;;;;;;4955588;28;20554;-88
2021/08/30 05:07:47;;;;;;;26.85;13.40;;;16.50;84.40;;;;;;4955379;29;20055;-89
2021/08/30 05:10:14;;;;;;;22.63;13.35;;;16.60;84.40;;;;;;4955113;28;20047;-90
2021/08/30 05:12:41;;;;;;;20.98;13.23;;;16.50;84.40;;;;;;4953969;29;20055;-89
2021/08/30 05:15:08;;;;;;;21.25;13.15;;;16.50;84.30;;;;;;4955257;28;20051;-89
2021/08/30 05:17:35;;;;;;;19.52;12.43;;;16.50;84.30;;;;;;4955363;28;20466;-88
2021/08/30 05:20:04;;;;;;;23.45;12.63;;;16.50;84.30;;;;;;4955081;28;20217;-89
2021/08/30 05:22:31;;;;;;;26.42;12.75;;;16.50;84.30;;;;;;4953788;28;20047;-87
2021/08/30 05:24:58;;;;;;;20.75;12.73;;;16.50;84.40;;;;;;4954941;28;20469;-88
2021/08/30 05:27:25;;;;;;;19.08;12.98;;;16.50;84.30;;;;;;4954940;28;20051;-87
2021/08/30 05:29:52;;;;;;;23.02;13.18;;;16.50;84.40;;;;;;4954896;28;20039;-88
2021/08/30 05:32:19;;;;;;;25.88;14.60;;;16.50;84.40;;;;;;4940785;28;20130;-88
2021/08/30 05:34:46;;;;;;;27.08;13.52;;;16.40;84.40;;;;;;4953707;28;20564;-88
2021/08/30 05:37:12;;;;;;;22.58;13.20;;;16.40;84.40;;;;;;4954458;28;20091;-87
2021/08/30 05:39:39;;;;;;;20.00;11.48;;;16.50;84.40;;;;;;4953463;28;20051;-86
2021/08/30 05:42:09;;;;;;;21.20;12.93;;;16.50;84.40;;;;;;4954665;28;20047;-87
2021/08/30 05:44:36;;;;;;;28.17;14.13;;;16.50;84.40;;;;;;4954890;28;20044;-88
2021/08/30 05:47:03;;;;;;;23.35;13.52;;;16.40;84.40;;;;;;4954628;28;20050;-88
2021/08/30 05:49:30;;;;;;;27.90;14.98;;;16.50;84.40;;;;;;4953305;28;20059;-87
2021/08/30 05:51:58;;;;;;;26.85;14.43;;;16.50;84.40;;;;;;4953123;28;20051;-87
2021/08/30 05:54:30;;;;;;;22.67;13.05;;;16.50;84.40;;;;;;4954378;28;20495;-87
2021/08/30 05:56:57;;;;;;;21.15;13.18;;;16.50;84.40;;;;;;4937514;29;20540;-89
2021/08/30 05:59:24;;;;;;;21.70;12.45;;;16.50;84.50;;;;;;4949619;28;20098;-89
2021/08/30 06:01:51;;;;;;;22.80;12.00;;;16.50;84.40;;;;;;4952773;28;20051;-88
2021/08/30 06:04:18;;;;;;;23.13;13.10;;;16.50;84.50;;;;;;4953142;28;20122;-88
2021/08/30 06:06:45;;;;;;;22.33;13.23;;;16.50;84.40;;;;;;4954146;28;20576;-89
2021/08/30 06:09:11;;;;;;;31.30;14.77;;;16.60;84.50;;;;;;4954296;29;20055;-89
2021/08/30 06:11:38;;;;;;;27.08;13.25;;;16.60;84.40;;;;;;4938946;28;20518;-89
2021/08/30 06:14:05;;;;;;;25.95;14.13;;;16.60;84.40;;;;;;4954462;28;20498;-89
2021/08/30 06:16:32;;;;;;;22.67;13.20;;;16.60;84.50;;;;;;4953842;28;20110;-88
2021/08/30 06:18:59;;;;;;;22.17;12.77;;;16.60;84.50;;;;;;4954100;28;20110;-89
2021/08/30 06:21:26;;;;;;;23.00;12.80;;;16.60;84.50;;;;;;4953942;28;20050;-88
2021/08/30 06:23:53;;;;;;;27.75;13.50;;;16.60;84.50;;;;;;4953065;29;20062;-88
2021/08/30 06:26:19;;;;;;;23.30;14.32;;;16.60;84.50;;;;;;4954494;28;20110;-89
2021/08/30 06:28:46;;;;;;;19.60;11.48;;;16.60;84.50;;;;;;4953859;29;20106;-89
2021/08/30 06:31:13;;;;;;;19.58;12.82;;;16.70;84.40;;;;;;4953567;29;20059;-89
2021/08/30 06:33:40;;;;;;;26.00;14.88;;;16.70;84.40;;;;;;4954163;28;20048;-89
2021/08/30 06:36:07;;;;;;;24.38;13.35;;;16.80;84.40;;;;;;4953663;28;20099;-89
2021/08/30 06:38:34;;;;;;;28.40;14.48;;;16.70;84.40;;;;;;4952984;28;20047;-88
2021/08/30 06:41:01;;;;;;;22.02;13.00;;;16.80;84.40;;;;;;4941821;28;20055;-91
2021/08/30 06:43:28;;;;;;;34.30;16.45;;;16.80;84.40;;;;;;4950839;28;20047;-92
2021/08/30 06:45:55;;;;;;;29.65;15.40;;;16.80;84.40;;;;;;4953779;28;20402;-88
2021/08/30 06:48:22;;;;;;;38.35;14.77;;;16.80;84.40;;;;;;4953809;28;20077;-90
2021/08/30 06:50:49;;;;;;;26.05;14.70;;;16.90;84.40;;;;;;4953997;29;20063;-89
2021/08/30 06:53:15;;;;;;;25.83;15.18;;;16.90;84.40;;;;;;4954466;28;20051;-89
2021/08/30 06:56:25;;;;;;;35.78;15.32;;;16.90;84.40;;;;;;4953590;28;20112;-90
2021/08/30 06:59:14;;;;;;;35.72;15.48;;;16.90;84.40;;;;;;4934324;29;20079;-87
2021/08/30 07:01:42;;;;;;;33.55;13.90;;;16.90;84.40;;;;;;4935672;29;20059;-89
2021/08/30 07:04:09;;;;;;;30.40;14.57;;;16.90;84.40;;;;;;4947765;29;20044;-89
2021/08/30 07:06:36;;;;;;;25.00;14.88;;;17.00;84.30;;;;;;4950256;29;20062;-87
2021/08/30 07:09:03;;;;;;;25.10;14.13;;;17.00;84.30;;;;;;4958049;28;20043;-89
2021/08/30 07:11:31;;;;;;;24.23;13.65;;;17.00;84.20;;;;;;4957437;28;20051;-89
2021/08/30 07:13:59;;;;;;;26.45;15.07;;;17.00;84.10;;;;;;4957201;29;20051;-90
2021/08/30 07:16:28;;;;;;;23.75;13.50;;;17.10;84.10;;;;;;4958715;28;20525;-89
2021/08/30 07:18:56;;;;;;;23.80;14.15;;;17.10;84.10;;;;;;4953989;29;20138;-88
2021/08/30 07:21:24;;;;;;;21.85;12.52;;;17.10;84.00;;;;;;4939893;29;20051;-88
2021/08/30 07:23:51;;;;;;;21.33;13.93;;;17.10;84.00;;;;;;4953708;28;20060;-89
2021/08/30 07:26:19;;;;;;;24.40;13.65;;;17.10;83.90;;;;;;4938399;29;20135;-88
2021/08/30 07:28:46;;;;;;;22.08;13.48;;;17.10;83.90;;;;;;4937815;29;20044;-91
2021/08/30 07:31:15;;;;;;;23.27;14.07;;;17.10;83.90;;;;;;4938722;29;20095;-90
2021/08/30 07:33:42;;;;;;;19.80;13.15;;;17.10;83.90;;;;;;4943672;29;20051;-90
2021/08/30 07:36:09;;;;;;;24.55;13.65;;;17.20;83.80;;;;;;4937535;29;20115;-90
2021/08/30 07:38:37;;;;;;;22.40;14.52;;;17.20;83.80;;;;;;4939550;29;20044;-92
2021/08/30 07:41:04;;;;;;;21.30;13.25;;;17.20;83.80;;;;;;4937268;29;20106;-90
2021/08/30 07:43:31;;;;;;;20.50;13.38;;;17.30;83.80;;;;;;4954424;28;20482;-89
2021/08/30 07:45:59;;;;;;;28.05;13.50;;;17.20;83.70;;;;;;4956243;28;20051;-89
2021/08/30 07:48:28;;;;;;;22.02;14.18;;;17.20;83.60;;;;;;4957041;28;20421;-90
2021/08/30 07:50:55;;;;;;;18.15;12.25;;;17.30;83.50;;;;;;4957599;28;20058;-91
2021/08/30 07:53:26;;;;;;;20.35;13.48;;;17.30;83.40;;;;;;4956502;28;20450;-90
2021/08/30 07:55:54;;;;;;;20.35;12.68;;;17.30;83.40;;;;;;4957890;28;20077;-90
2021/08/30 07:58:22;;;;;;;25.50;13.00;;;17.30;83.40;;;;;;4952814;28;20051;-90
2021/08/30 08:00:51;;;;;;;22.42;13.00;;;17.30;83.30;;;;;;4937800;29;20123;-89
2021/08/30 08:03:18;;;;;;;18.33;13.38;;;17.40;83.20;;;;;;4937803;29;20087;-90
2021/08/30 08:05:46;;;;;;;19.83;13.15;;;17.40;83.00;;;;;;4940591;29;20103;-93
2021/08/30 08:08:14;;;;;;;21.20;13.40;;;17.40;82.60;;;;;;4956488;28;20051;-90
2021/08/30 08:10:43;;;;;;;18.48;12.63;;;17.40;82.50;;;;;;4939861;28;20052;-94
2021/08/30 08:13:10;;;;;;;19.25;13.60;;;17.40;82.50;;;;;;4952763;28;20052;-92
2021/08/30 08:15:38;;;;;;;19.63;13.07;;;17.40;82.40;;;;;;4942365;29;20088;-90
2021/08/30 08:18:05;;;;;;;21.85;13.27;;;17.40;82.30;;;;;;4937798;29;20055;-89
2021/08/30 08:20:33;;;;;;;19.45;13.55;;;17.40;82.30;;;;;;4936490;29;20084;-92
2021/08/30 08:23:02;;;;;;;19.95;13.07;;;17.40;82.30;;;;;;4956419;28;20509;-89
2021/08/30 08:25:29;;;;;;;21.88;13.77;;;17.40;82.30;;;;;;4954892;29;20047;-88
2021/08/30 08:28:00;;;;;;;18.75;13.10;;;17.40;82.30;;;;;;4949487;29;20056;-89
2021/08/30 08:30:28;;;;;;;22.25;14.00;;;17.40;82.20;;;;;;4936471;29;20051;-89
2021/08/30 08:32:55;;;;;;;21.95;15.38;;;17.40;82.20;;;;;;4936464;29;20055;-89
2021/08/30 08:35:23;;;;;;;24.45;16.23;;;17.40;82.30;;;;;;4937479;29;20521;-88
2021/08/30 08:37:50;;;;;;;24.48;16.45;;;17.40;82.30;;;;;;4937723;29;20624;-87
2021/08/30 08:40:17;;;;;;;30.00;17.33;;;17.40;82.40;;;;;;4949918;29;20132;-91
2021/08/30 08:42:45;;;;;;;27.45;18.35;;;17.40;82.50;;;;;;4954743;28;20125;-89
2021/08/30 08:45:15;;;;;;;31.17;19.65;;;17.40;82.60;;;;;;4952075;28;20048;-90
2021/08/30 08:47:42;;;;;;;27.15;18.02;;;17.40;82.80;;;;;;4937561;29;20418;-90
2021/08/30 08:50:13;;;;;;;35.10;20.67;;;17.40;83.00;;;;;;4955736;28;20051;-91
2021/08/30 08:52:42;;;;;;;32.13;20.27;;;17.40;83.10;;;;;;4954993;28;20510;-91
2021/08/30 08:55:14;;;;;;;31.90;20.65;;;17.40;83.20;;;;;;4955022;28;20055;-91
2021/08/30 08:57:43;;;;;;;31.58;21.20;;;17.40;83.30;;;;;;4955466;28;20066;-91
2021/08/30 09:00:12;;;;;;;35.35;22.83;;;17.40;83.40;;;;;;4954708;28;20078;-92
2021/08/30 09:02:39;;;;;;;28.73;21.38;;;17.50;83.50;;;;;;4955855;28;20126;-91
2021/08/30 09:05:20;;;;;;;34.90;22.67;;;17.60;83.80;;;;;;4955884;28;20094;-92
2021/08/30 09:07:47;;;;;;;30.75;20.60;;;17.70;83.70;;;;;;4955400;28;20071;-92
2021/08/30 09:10:17;;;;;;;30.90;21.02;;;17.90;83.60;;;;;;4955120;28;20047;-91
2021/08/30 09:12:47;;;;;;;30.45;20.15;;;17.90;83.40;;;;;;4945217;29;20474;-91
2021/08/30 09:15:20;;;;;;;34.65;19.77;;;18.00;83.30;;;;;;4936914;29;20498;-91
2021/08/30 09:17:52;;;;;;;29.13;17.73;;;18.10;83.20;;;;;;4938298;29;20051;-90
2021/08/30 09:20:21;;;;;;;30.20;19.05;;;18.20;82.90;;;;;;4955244;29;20102;-90
2021/08/30 09:22:49;;;;;;;28.17;18.90;;;18.30;82.60;;;;;;4954967;28;20056;-90
2021/08/30 09:25:21;;;;;;;28.35;18.05;;;18.40;82.60;;;;;;4955759;28;20051;-90
2021/08/30 09:27:51;;;;;;;29.63;18.85;;;18.50;82.60;;;;;;4955262;28;20134;-91
2021/08/30 09:30:28;;;;;;;31.38;19.15;;;18.60;82.40;;;;;;4954342;28;20051;-89
2021/08/30 09:32:55;;;;;;;26.42;17.95;;;18.70;82.20;;;;;;4953055;28;20102;-89
2021/08/30 09:35:24;;;;;;;25.33;18.05;;;18.90;82.00;;;;;;4936334;28;20067;-88
2021/08/30 09:37:51;;;;;;;26.13;17.90;;;18.90;81.60;;;;;;4947425;28;20051;-91
2021/08/30 09:40:22;;;;;;;24.33;16.90;;;19.10;81.30;;;;;;4936205;29;20136;-91
2021/08/30 09:42:56;;;;;;;21.80;15.35;;;19.10;81.00;;;;;;4944137;29;20573;-91
2021/08/30 09:45:27;;;;;;;24.38;16.42;;;19.20;80.50;;;;;;4952600;29;20050;-91
2021/08/30 09:48:00;;;;;;;25.27;18.33;;;19.20;80.00;;;;;;4935553;29;20062;-92
2021/08/30 09:50:33;;;;;;;24.30;18.40;;;19.20;79.70;;;;;;4946593;28;20051;-89
2021/08/30 09:53:03;;;;;;;22.77;17.92;;;19.20;79.80;;;;;;4935828;29;20079;-90
2021/08/30 09:55:32;;;;;;;26.13;17.17;;;19.20;79.70;;;;;;4934868;29;20052;-89
2021/08/30 09:57:59;;;;;;;25.90;17.75;;;19.20;79.60;;;;;;4935074;29;20063;-90
2021/08/30 10:00:27;;;;;;;27.75;18.30;;;19.20;79.60;;;;;;4936301;29;20052;-88
2021/08/30 10:02:58;;;;;;;26.55;18.23;;;19.20;79.40;;;;;;4936789;28;20059;-90
2021/08/30 10:05:28;;;;;;;24.80;17.15;;;19.30;79.40;;;;;;4935102;29;20052;-90
2021/08/30 10:07:59;;;;;;;22.65;17.45;;;19.30;79.40;;;;;;4946591;29;20051;-90
2021/08/30 10:10:26;;;;;;;25.85;17.88;;;19.40;79.30;;;;;;4950273;28;20515;-90
2021/08/30 10:12:54;;;;;;;25.48;19.08;;;19.40;79.20;;;;;;4949774;29;20058;-91
2021/08/30 10:15:25;;;;;;;21.63;17.48;;;19.40;78.80;;;;;;4936131;29;20051;-91
2021/08/30 10:17:53;;;;;;;26.05;17.92;;;19.40;78.60;;;;;;4950087;28;20063;-90
2021/08/30 10:20:28;;;;;;;22.98;16.05;;;19.40;78.50;;;;;;4935983;29;20060;-92
2021/08/30 10:22:55;;;;;;;;;;;19.40;78.00;;;;;;4951092;28;20132;-92
2021/08/30 10:25:22;;;;;;;25.88;17.52;;;19.50;78.00;;;;;;4954245;28;20358;-89
2021/08/30 10:27:58;;;;;;;24.30;17.63;;;19.50;78.10;;;;;;4953852;29;20118;-89
2021/08/30 10:30:28;;;;;;;22.80;16.30;;;19.50;78.00;;;;;;4951101;29;20059;-91
2021/08/30 10:33:01;;;;;;;20.00;15.45;;;19.60;77.80;;;;;;4953604;28;20047;-91
2021/08/30 10:35:31;;;;;;;25.00;16.03;;;19.60;77.60;;;;;;4934780;29;20055;-92
2021/08/30 10:38:00;;;;;;;18.05;14.40;;;19.70;77.40;;;;;;4935629;29;20048;-90
2021/08/30 10:40:35;;;;;;;26.08;16.77;;;19.80;77.40;;;;;;4936013;29;20051;-93
2021/08/30 10:43:14;;;;;;;21.10;15.50;;;19.90;77.50;;;;;;4946665;28;20055;-90
2021/08/30 10:45:56;;;;;;;19.38;15.05;;;19.90;77.50;;;;;;4950481;29;20122;-89
2021/08/30 10:48:36;;;;;;;22.42;16.38;;;20.00;77.40;;;;;;4937904;28;20056;-90
2021/08/30 10:51:27;;;;;;;22.17;16.48;;;20.10;77.00;;;;;;4950741;29;20059;-89
2021/08/30 10:54:00;;;;;;;23.65;15.68;;;20.20;76.70;;;;;;4951499;28;20059;-89
2021/08/30 10:56:32;;;;;;;19.77;14.45;;;20.30;76.00;;;;;;4934366;29;20047;-89
2021/08/30 10:59:12;;;;;;;21.58;15.27;;;20.40;75.60;;;;;;4934601;29;20059;-91
2021/08/30 11:01:51;;;;;;;21.77;14.07;;;20.40;75.30;;;;;;4935310;29;20499;-90
2021/08/30 11:04:31;;;;;;;21.00;14.70;;;20.50;75.00;;;;;;4935264;29;20052;-89
2021/08/30 11:06:59;;;;;;;17.38;13.77;;;20.50;75.00;;;;;;4947137;28;20106;-92
2021/08/30 11:09:27;;;;;;;21.15;14.35;;;20.50;74.80;;;;;;4950297;28;20055;-91
2021/08/30 11:12:05;;;;;;;15.13;12.40;;;20.60;74.70;;;;;;4933764;29;20047;-90
2021/08/30 11:14:35;;;;;;;18.40;13.27;;;20.50;74.50;;;;;;4949906;29;20056;-90
2021/08/30 11:17:03;;;;;;;15.38;12.23;;;20.60;74.50;;;;;;4934810;29;20106;-91
2021/08/30 11:19:30;;;;;;;16.63;12.80;;;20.60;74.60;;;;;;4950054;28;20051;-90
2021/08/30 11:22:00;;;;;;;22.10;15.63;;;20.60;74.50;;;;;;4953966;28;20047;-91
2021/08/30 11:24:45;;;;;;;23.70;15.10;;;20.60;74.60;;;;;;4945503;28;20529;-90
2021/08/30 11:27:14;;;;;;;19.88;15.13;;;20.70;74.70;;;;;;4943809;28;20503;-90
2021/08/30 11:29:54;;;;;;;24.35;15.82;;;20.60;74.70;;;;;;4951724;29;20052;-90
2021/08/30 11:32:24;;;;;;;23.83;17.02;;;20.60;74.90;;;;;;4953678;28;20063;-91
2021/08/30 11:34:53;;;;;;;22.45;16.20;;;20.60;74.70;;;;;;4952980;28;20418;-91
2021/08/30 11:37:26;;;;;;;20.95;16.60;;;20.50;74.90;;;;;;4953620;28;20458;-89
2021/08/30 11:39:55;;;;;;;28.45;17.20;;;20.50;75.20;;;;;;4945842;29;20059;-90
2021/08/30 11:42:31;;;;;;;22.85;17.73;;;20.50;75.20;;;;;;4952982;28;20450;-90
2021/08/30 11:45:07;;;;;;;21.83;16.33;;;20.50;75.30;;;;;;4933682;29;20111;-89
2021/08/30 11:47:34;;;;;;;21.20;15.88;;;20.50;75.40;;;;;;4934491;29;20048;-92
2021/08/30 11:50:04;;;;;;;21.13;15.88;;;20.50;75.20;;;;;;4933681;29;20499;-88
2021/08/30 11:52:33;;;;;;;22.33;15.75;;;20.50;75.20;;;;;;4950132;28;20063;-90
2021/08/30 11:55:10;;;;;;;23.75;15.10;;;20.60;75.20;;;;;;4950909;28;20059;-92
2021/08/30 11:57:50;;;;;;;23.02;16.75;;;20.60;75.00;;;;;;4938176;29;20051;-90
2021/08/30 12:00:22;;;;;;;23.67;16.73;;;20.60;75.10;;;;;;4945094;29;20047;-90
2021/08/30 12:02:52;;;;;;;23.38;16.77;;;20.60;75.50;;;;;;4938679;29;20402;-90
2021/08/30 12:05:20;;;;;;;27.70;17.33;;;20.70;75.40;;;;;;4955926;28;20051;-90
2021/08/30 12:07:52;;;;;;;25.20;16.10;;;20.70;75.10;;;;;;4955136;29;20063;-91
2021/08/30 12:10:21;;;;;;;24.02;15.82;;;20.80;74.90;;;;;;4957218;28;20070;-89
2021/08/30 12:15:31;;;;;;;22.60;15.93;;;20.80;74.50;;;;;;4938343;29;20095;-89
2021/08/30 12:18:00;;;;;;;24.55;15.68;;;20.80;74.50;;;;;;4937588;29;20048;-90
2021/08/30 12:20:50;;;;;;;26.27;15.93;;;20.70;74.50;;;;;;4952771;28;20058;-92
2021/08/30 12:23:20;;;;;;;25.20;16.15;;;20.70;74.60;;;;;;4937740;29;20051;-91
2021/08/30 12:25:48;;;;;;;27.33;15.57;;;20.70;74.70;;;;;;4951899;28;20060;-95
2021/08/30 12:28:17;;;;;;;22.67;17.13;;;20.70;74.60;;;;;;4952342;28;20437;-90
2021/08/30 12:30:49;;;;;;;25.80;15.77;;;20.60;74.60;;;;;;4952284;28;20395;-89
2021/08/30 12:33:21;;;;;;;19.15;14.77;;;20.70;74.80;;;;;;4936786;29;20118;-90
2021/08/30 12:35:54;;;;;;;25.17;15.70;;;20.60;74.30;;;;;;4937303;29;20070;-91
2021/08/30 12:38:23;;;;;;;20.33;15.80;;;20.70;74.50;;;;;;4951422;29;20054;-89
2021/08/30 12:40:55;;;;;;;19.83;14.82;;;20.70;74.70;;;;;;4951882;28;20134;-90
2021/08/30 12:43:23;;;;;;;23.08;15.73;;;20.70;74.70;;;;;;4955123;28;20505;-89
2021/08/30 12:45:51;;;;;;;21.27;15.45;;;20.70;74.80;;;;;;4952184;28;20056;-93